Time;durP1;ratioP1;P1;durP2;ratioP2;P2;SDS_P1;SDS_P2;PMS_P1;PMS_P2;Temp;Humidity;BMP_temperature;BMP_pressure;BME280_temperature;BME280_humidity;BME280_pressure;Samples;Min_cycle;Max_cycle;Signal;HPM_P1;HPM_P2
2022/09/10 00:01:00;;;;;;;10.45;4.18;;;;;;;;;;5053033;28;20234;-68
2022/09/10 00:03:26;;;;;;;8.27;3.90;;;;;;;;;;5051880;28;20211;-68
2022/09/10 00:05:51;;;;;;;10.88;5.10;;;;;;;;;;5053010;28;20208;-68
2022/09/10 00:08:16;;;;;;;7.55;3.65;;;;;;;;;;5052354;28;20221;-69
2022/09/10 00:10:43;;;;;;;8.15;3.90;;;;;;;;;;5052085;28;20261;-69
2022/09/10 00:13:08;;;;;;;12.00;4.78;;;;;;;;;;5052260;28;20218;-69
2022/09/10 00:15:41;;;;;;;7.60;3.30;;;;;;;;;;5026890;28;20219;-69
2022/09/10 00:18:08;;;;;;;8.75;3.70;;;;;;;;;;5029981;28;20220;-67
2022/09/10 00:20:34;;;;;;;11.20;3.65;;;;;;;;;;5013015;28;20212;-69
2022/09/10 00:23:00;;;;;;;11.00;4.05;;;;;;;;;;5016086;28;20224;-68
2022/09/10 00:25:28;;;;;;;9.68;2.97;;;;;;;;;;5017733;28;20204;-68
2022/09/10 00:27:53;;;;;;;7.03;3.17;;;;;;;;;;5005896;28;20204;-68
2022/09/10 00:30:19;;;;;;;10.05;3.33;;;;;;;;;;5014182;28;20207;-68
2022/09/10 00:32:48;;;;;;;10.65;3.70;;;;;;;;;;5016231;28;20212;-69
2022/09/10 00:35:13;;;;;;;11.25;3.28;;;;;;;;;;5019967;28;20216;-69
2022/09/10 00:37:39;;;;;;;10.23;3.58;;;;;;;;;;5006543;28;20216;-69
2022/09/10 00:40:05;;;;;;;10.75;3.58;;;;;;;;;;5001364;28;20289;-68
2022/09/10 00:42:30;;;;;;;10.23;4.53;;;;;;;;;;5002862;28;20307;-68
2022/09/10 00:44:57;;;;;;;11.55;5.25;;;;;;;;;;5002481;28;20727;-69
2022/09/10 00:47:25;;;;;;;13.15;5.50;;;;;;;;;;5015888;28;20216;-69
2022/09/10 00:49:53;;;;;;;14.02;5.50;;;;;;;;;;5029283;28;20306;-69
2022/09/10 00:52:18;;;;;;;11.35;4.97;;;;;;;;;;5019481;28;20751;-69
2022/09/10 00:54:44;;;;;;;12.73;5.38;;;;;;;;;;5014867;28;20215;-68
2022/09/10 00:57:11;;;;;;;10.60;4.70;;;;;;;;;;5021657;28;20303;-68
2022/09/10 00:59:37;;;;;;;12.90;4.88;;;;;;;;;;5021068;28;20212;-69
2022/09/10 01:02:03;;;;;;;13.15;6.15;;;;;;;;;;5036769;28;20215;-67
2022/09/10 01:04:28;;;;;;;12.93;6.15;;;;;;;;;;5020341;28;20252;-69
2022/09/10 01:06:53;;;;;;;12.48;5.72;;;;;;;;;;5021352;28;20218;-68
2022/09/10 01:09:19;;;;;;;10.68;5.13;;;;;;;;;;5021374;28;20238;-68
2022/09/10 01:11:48;;;;;;;14.23;6.55;;;;;;;;;;5031183;28;20837;-69
2022/09/10 01:14:14;;;;;;;12.57;5.80;;;;;;;;;;5027903;28;20886;-68
2022/09/10 01:16:47;;;;;;;12.13;5.43;;;;;;;;;;5001112;28;20212;-68
2022/09/10 01:19:27;;;;;;;12.38;6.72;;;;;;;;;;5036231;28;20258;-68
2022/09/10 01:21:59;;;;;;;10.88;6.88;;;;;;;;;;5028768;28;20686;-69
2022/09/10 01:24:25;;;;;;;17.77;9.10;;;;;;;;;;5029908;28;20203;-69
2022/09/10 01:26:57;;;;;;;13.88;7.47;;;;;;;;;;5026516;28;20216;-69
2022/09/10 01:29:25;;;;;;;15.02;8.10;;;;;;;;;;5009348;28;20287;-68
2022/09/10 01:31:53;;;;;;;13.48;8.15;;;;;;;;;;5010425;28;20208;-69
2022/09/10 01:34:21;;;;;;;14.20;7.38;;;;;;;;;;5010049;28;20304;-69
2022/09/10 01:36:47;;;;;;;14.45;8.90;;;;;;;;;;5016972;28;20314;-69
2022/09/10 01:39:13;;;;;;;15.98;9.82;;;;;;;;;;5029541;28;20214;-68
2022/09/10 01:41:39;;;;;;;15.55;9.60;;;;;;;;;;5029437;28;20254;-69
2022/09/10 01:44:07;;;;;;;16.48;9.60;;;;;;;;;;5030699;28;20219;-68
2022/09/10 01:46:38;;;;;;;16.58;9.35;;;;;;;;;;5031367;28;20235;-69
2022/09/10 01:49:08;;;;;;;17.77;10.32;;;;;;;;;;5028883;28;20278;-69
2022/09/10 01:52:09;;;;;;;17.50;9.82;;;;;;;;;;5029973;28;20200;-69
2022/09/10 01:54:39;;;;;;;15.73;10.45;;;;;;;;;;5030696;28;20738;-69
2022/09/10 01:57:15;;;;;;;14.48;8.55;;;;;;;;;;5012199;28;20232;-69
2022/09/10 01:59:45;;;;;;;11.20;7.22;;;;;;;;;;5029894;28;20316;-68
2022/09/10 02:02:13;;;;;;;15.77;10.52;;;;;;;;;;5030739;28;20211;-68
2022/09/10 02:04:38;;;;;;;19.10;10.05;;;;;;;;;;5029082;28;20765;-69
2022/09/10 02:07:04;;;;;;;14.07;9.05;;;;;;;;;;5029404;28;20218;-69
2022/09/10 02:09:29;;;;;;;15.70;9.60;;;;;;;;;;5030781;28;20551;-69
2022/09/10 02:11:55;;;;;;;15.35;10.05;;;;;;;;;;5030498;28;20223;-69
2022/09/10 02:14:20;;;;;;;13.88;8.98;;;;;;;;;;5031766;28;20227;-68
2022/09/10 02:16:50;;;;;;;14.27;8.90;;;;;;;;;;5034963;28;20311;-69
2022/09/10 02:19:15;;;;;;;14.32;8.63;;;;;;;;;;5031256;28;20263;-69
2022/09/10 02:21:41;;;;;;;13.70;7.88;;;;;;;;;;5011989;28;20247;-69
2022/09/10 02:24:08;;;;;;;18.30;9.95;;;;;;;;;;5023890;28;20253;-69
2022/09/10 02:26:36;;;;;;;15.65;9.20;;;;;;;;;;5000343;28;20909;-70
2022/09/10 02:29:02;;;;;;;13.77;8.23;;;;;;;;;;5030044;28;20290;-67
2022/09/10 02:31:28;;;;;;;16.05;9.90;;;;;;;;;;5035156;28;20232;-69
2022/09/10 02:33:54;;;;;;;18.65;9.60;;;;;;;;;;5010273;28;20224;-69
2022/09/10 02:36:19;;;;;;;15.95;9.95;;;;;;;;;;5016309;28;20653;-69
2022/09/10 02:38:45;;;;;;;12.80;9.77;;;;;;;;;;4996479;28;20291;-69
2022/09/10 02:41:10;;;;;;;18.08;9.60;;;;;;;;;;4993003;28;20324;-69
2022/09/10 02:43:36;;;;;;;16.05;8.48;;;;;;;;;;4993761;28;20211;-68
2022/09/10 02:46:02;;;;;;;17.98;9.35;;;;;;;;;;5015814;28;21271;-67
2022/09/10 02:48:29;;;;;;;17.20;9.30;;;;;;;;;;5020566;28;20281;-69
2022/09/10 02:50:55;;;;;;;17.08;8.65;;;;;;;;;;5020357;28;20266;-68
2022/09/10 02:53:20;;;;;;;16.52;8.32;;;;;;;;;;5000975;28;20224;-69
2022/09/10 02:55:45;;;;;;;18.88;9.98;;;;;;;;;;5003284;28;20288;-69
2022/09/10 02:58:12;;;;;;;12.50;8.13;;;;;;;;;;5038937;28;20794;-69
2022/09/10 03:00:37;;;;;;;17.13;10.65;;;;;;;;;;5017317;28;20209;-69
2022/09/10 03:03:03;;;;;;;15.93;9.05;;;;;;;;;;4996769;28;20327;-68
2022/09/10 03:05:28;;;;;;;17.95;10.50;;;;;;;;;;4996960;28;20743;-68
2022/09/10 03:07:54;;;;;;;16.17;9.90;;;;;;;;;;4997545;28;20255;-68
2022/09/10 03:10:19;;;;;;;21.55;11.23;;;;;;;;;;5019362;28;20208;-69
2022/09/10 03:12:46;;;;;;;16.75;11.63;;;;;;;;;;5004691;28;20224;-69
2022/09/10 03:15:12;;;;;;;17.73;10.70;;;;;;;;;;5021270;28;21211;-70
2022/09/10 03:17:37;;;;;;;16.95;10.90;;;;;;;;;;5019013;28;20697;-68
2022/09/10 03:20:03;;;;;;;19.65;10.73;;;;;;;;;;5014807;28;20302;-69
2022/09/10 03:22:29;;;;;;;15.07;10.05;;;;;;;;;;5004415;28;20213;-68
2022/09/10 03:24:55;;;;;;;14.48;9.35;;;;;;;;;;5000379;28;20217;-68
2022/09/10 03:27:21;;;;;;;15.48;10.38;;;;;;;;;;4995188;28;20212;-68
2022/09/10 03:29:47;;;;;;;16.67;11.45;;;;;;;;;;4996385;28;20205;-68
2022/09/10 03:32:12;;;;;;;17.98;11.85;;;;;;;;;;5003063;28;20262;-68
2022/09/10 03:34:38;;;;;;;15.52;11.88;;;;;;;;;;5003417;28;20209;-68
2022/09/10 03:37:04;;;;;;;18.63;10.05;;;;;;;;;;5013017;28;20263;-67
2022/09/10 03:39:30;;;;;;;16.67;11.00;;;;;;;;;;5003811;28;20268;-67
2022/09/10 03:41:57;;;;;;;20.98;10.52;;;;;;;;;;5003306;28;20329;-68
2022/09/10 03:44:22;;;;;;;15.43;10.88;;;;;;;;;;5003577;28;20254;-67
2022/09/10 03:46:49;;;;;;;17.35;11.30;;;;;;;;;;4999555;28;20217;-69
2022/09/10 03:49:15;;;;;;;15.35;9.50;;;;;;;;;;4994577;28;20235;-69
2022/09/10 03:51:40;;;;;;;16.60;9.60;;;;;;;;;;4996742;28;20311;-69
2022/09/10 03:54:05;;;;;;;17.63;11.13;;;;;;;;;;5015516;28;20259;-68
2022/09/10 03:56:31;;;;;;;19.38;11.15;;;;;;;;;;5003574;28;20345;-67
2022/09/10 03:58:56;;;;;;;18.52;11.68;;;;;;;;;;5003589;28;20210;-68
2022/09/10 04:01:21;;;;;;;15.57;10.93;;;;;;;;;;5003009;28;20236;-68
2022/09/10 04:03:47;;;;;;;14.05;9.38;;;;;;;;;;5003010;28;20212;-67
2022/09/10 04:06:12;;;;;;;13.95;8.60;;;;;;;;;;5003108;28;20294;-67
2022/09/10 04:08:38;;;;;;;15.88;9.93;;;;;;;;;;5016293;28;20219;-68
2022/09/10 04:11:03;;;;;;;14.10;9.20;;;;;;;;;;4994761;28;20562;-68
2022/09/10 04:13:30;;;;;;;14.85;8.90;;;;;;;;;;4995864;28;20243;-68
2022/09/10 04:15:55;;;;;;;18.38;10.60;;;;;;;;;;5032240;28;20737;-67
2022/09/10 04:18:21;;;;;;;17.13;12.40;;;;;;;;;;5017154;28;20204;-68
2022/09/10 04:20:47;;;;;;;16.10;11.15;;;;;;;;;;5002834;28;20225;-69
2022/09/10 04:23:12;;;;;;;18.98;12.27;;;;;;;;;;5002830;28;20363;-74
2022/09/10 04:25:38;;;;;;;15.18;11.80;;;;;;;;;;5003070;28;20212;-72
2022/09/10 04:28:03;;;;;;;19.58;11.80;;;;;;;;;;5002700;28;20219;-72
2022/09/10 04:30:28;;;;;;;18.83;12.30;;;;;;;;;;5002795;28;20201;-72
2022/09/10 04:32:53;;;;;;;18.17;11.85;;;;;;;;;;4995821;28;20715;-71
2022/09/10 04:35:20;;;;;;;17.25;12.10;;;;;;;;;;4994947;28;20303;-73
2022/09/10 04:37:45;;;;;;;16.35;10.20;;;;;;;;;;4997524;28;20883;-73
2022/09/10 04:40:11;;;;;;;17.10;12.23;;;;;;;;;;5001743;28;20320;-72
2022/09/10 04:42:37;;;;;;;19.60;13.85;;;;;;;;;;5003859;28;20213;-76
2022/09/10 04:45:02;;;;;;;17.63;12.05;;;;;;;;;;5012066;28;20497;-71
2022/09/10 04:47:28;;;;;;;19.23;12.02;;;;;;;;;;5011034;28;20671;-72
2022/09/10 04:49:53;;;;;;;19.77;13.93;;;;;;;;;;5011461;28;20436;-69
2022/09/10 04:52:21;;;;;;;17.47;13.50;;;;;;;;;;5030433;28;20423;-68
2022/09/10 04:54:46;;;;;;;21.10;13.02;;;;;;;;;;5020787;28;20713;-70
2022/09/10 04:57:12;;;;;;;14.38;10.65;;;;;;;;;;5028599;28;20219;-69
2022/09/10 04:59:37;;;;;;;13.93;9.95;;;;;;;;;;5030818;28;20243;-68
2022/09/10 05:02:02;;;;;;;15.75;11.10;;;;;;;;;;5029726;28;20231;-69
2022/09/10 05:04:28;;;;;;;15.57;10.80;;;;;;;;;;5031690;28;20290;-70
2022/09/10 05:06:53;;;;;;;15.05;10.10;;;;;;;;;;5030576;28;20211;-72
2022/09/10 05:09:18;;;;;;;17.58;10.27;;;;;;;;;;5030785;28;20212;-72
2022/09/10 05:11:45;;;;;;;14.40;10.02;;;;;;;;;;5029640;28;20270;-70
2022/09/10 05:14:11;;;;;;;18.92;12.57;;;;;;;;;;5029921;28;20487;-68
2022/09/10 05:16:37;;;;;;;16.45;10.57;;;;;;;;;;5031036;28;20231;-69
2022/09/10 05:19:02;;;;;;;14.80;9.80;;;;;;;;;;5029281;28;20294;-67
2022/09/10 05:21:29;;;;;;;13.55;9.63;;;;;;;;;;5030237;28;20207;-69
2022/09/10 05:23:55;;;;;;;12.73;9.00;;;;;;;;;;5031554;28;20736;-68
2022/09/10 05:26:20;;;;;;;13.80;9.40;;;;;;;;;;5030604;28;20221;-67
2022/09/10 05:28:46;;;;;;;14.77;9.60;;;;;;;;;;5028403;28;20208;-68
2022/09/10 05:31:12;;;;;;;13.05;9.40;;;;;;;;;;5019210;28;20250;-67
2022/09/10 05:33:39;;;;;;;14.50;11.20;;;;;;;;;;5012063;28;20216;-71
2022/09/10 05:36:07;;;;;;;15.13;11.50;;;;;;;;;;5011630;28;20228;-79
2022/09/10 05:38:33;;;;;;;14.15;10.32;;;;;;;;;;5030237;28;20266;-73
2022/09/10 05:40:59;;;;;;;14.23;9.63;;;;;;;;;;5026879;28;20220;-73
2022/09/10 05:43:24;;;;;;;14.32;10.23;;;;;;;;;;5021226;28;20693;-77
2022/09/10 05:45:51;;;;;;;13.23;10.35;;;;;;;;;;5018779;28;20231;-75
2022/09/10 05:48:16;;;;;;;14.98;9.70;;;;;;;;;;5023043;28;20209;-73
2022/09/10 05:50:44;;;;;;;15.18;11.15;;;;;;;;;;5034734;28;20211;-72
2022/09/10 05:53:09;;;;;;;13.07;9.68;;;;;;;;;;5032482;28;20273;-74
2022/09/10 05:55:34;;;;;;;14.85;9.75;;;;;;;;;;5024121;28;20579;-72
2022/09/10 05:58:01;;;;;;;14.63;9.73;;;;;;;;;;5013710;28;20227;-72
2022/09/10 06:00:27;;;;;;;15.68;10.65;;;;;;;;;;5029696;28;20207;-73
2022/09/10 06:02:52;;;;;;;16.10;10.32;;;;;;;;;;5030481;28;20218;-72
2022/09/10 06:05:20;;;;;;;14.18;9.77;;;;;;;;;;5030735;28;20291;-73
2022/09/10 06:07:45;;;;;;;15.63;10.25;;;;;;;;;;5018836;28;20245;-72
2022/09/10 06:10:10;;;;;;;13.77;10.13;;;;;;;;;;5019252;28;20212;-71
2022/09/10 06:12:36;;;;;;;13.27;9.55;;;;;;;;;;5019870;28;20602;-70
2022/09/10 06:15:02;;;;;;;14.00;10.38;;;;;;;;;;5020103;28;20738;-72
2022/09/10 06:17:27;;;;;;;13.63;9.60;;;;;;;;;;5021007;28;20638;-72
2022/09/10 06:19:53;;;;;;;14.77;10.63;;;;;;;;;;5019577;28;20259;-71
2022/09/10 06:22:18;;;;;;;16.85;11.40;;;;;;;;;;5020368;28;20227;-70
2022/09/10 06:24:46;;;;;;;13.50;9.77;;;;;;;;;;5020394;28;20209;-70
2022/09/10 06:27:11;;;;;;;12.73;9.25;;;;;;;;;;5018949;28;20299;-68
2022/09/10 06:29:37;;;;;;;15.95;10.63;;;;;;;;;;5021187;28;20299;-63
2022/09/10 06:32:02;;;;;;;15.27;10.27;;;;;;;;;;5023596;28;20220;-64
2022/09/10 06:34:27;;;;;;;15.43;10.27;;;;;;;;;;5021684;28;20750;-65
2022/09/10 06:36:54;;;;;;;16.10;11.05;;;;;;;;;;5025858;28;20237;-65
2022/09/10 06:39:19;;;;;;;14.43;10.07;;;;;;;;;;5021654;28;20208;-65
2022/09/10 06:41:45;;;;;;;15.88;10.93;;;;;;;;;;5024568;28;20267;-64
2022/09/10 06:44:11;;;;;;;13.13;10.35;;;;;;;;;;5021773;28;20204;-65
2022/09/10 06:46:36;;;;;;;15.23;10.68;;;;;;;;;;5023722;28;20215;-63
2022/09/10 06:49:03;;;;;;;15.43;10.85;;;;;;;;;;5022017;28;20255;-64
2022/09/10 06:51:28;;;;;;;17.92;12.48;;;;;;;;;;5023149;28;20221;-64
2022/09/10 06:53:53;;;;;;;17.65;12.15;;;;;;;;;;5052642;28;20301;-66
2022/09/10 06:56:19;;;;;;;14.57;10.35;;;;;;;;;;5015970;28;20235;-63
2022/09/10 06:58:45;;;;;;;14.95;11.68;;;;;;;;;;5031840;28;20422;-66
2022/09/10 07:01:11;;;;;;;19.25;11.80;;;;;;;;;;5032605;28;20223;-65
2022/09/10 07:03:36;;;;;;;15.30;9.52;;;;;;;;;;5033086;28;20212;-66
2022/09/10 07:06:03;;;;;;;12.98;9.05;;;;;;;;;;5033152;28;20227;-65
2022/09/10 07:08:29;;;;;;;12.18;8.27;;;;;;;;;;5026911;28;20247;-64
2022/09/10 07:10:58;;;;;;;13.70;9.18;;;;;;;;;;5022336;28;20244;-65
2022/09/10 07:13:26;;;;;;;14.77;9.30;;;;;;;;;;5021148;28;20223;-66
2022/09/10 07:15:51;;;;;;;12.93;9.23;;;;;;;;;;5024016;28;20686;-65
2022/09/10 07:18:17;;;;;;;12.07;8.57;;;;;;;;;;5023952;28;20215;-66
2022/09/10 07:20:42;;;;;;;14.23;10.15;;;;;;;;;;5023696;28;20200;-67
2022/09/10 07:23:09;;;;;;;14.02;10.13;;;;;;;;;;5020741;28;20279;-68
2022/09/10 07:25:34;;;;;;;13.23;8.77;;;;;;;;;;5023423;28;20204;-67
2022/09/10 07:28:00;;;;;;;12.38;8.88;;;;;;;;;;5023072;28;20213;-67
2022/09/10 07:30:27;;;;;;;16.70;10.88;;;;;;;;;;5021830;28;20201;-67
2022/09/10 07:32:52;;;;;;;16.92;10.52;;;;;;;;;;5022490;28;20231;-69
2022/09/10 07:35:18;;;;;;;15.82;11.38;;;;;;;;;;5022445;28;20228;-63
2022/09/10 07:37:43;;;;;;;18.17;11.43;;;;;;;;;;5019412;28;20307;-65
2022/09/10 07:40:09;;;;;;;17.55;11.60;;;;;;;;;;5012853;28;20593;-65
2022/09/10 07:42:36;;;;;;;15.25;11.10;;;;;;;;;;5012660;28;20216;-65
2022/09/10 07:45:01;;;;;;;20.88;12.25;;;;;;;;;;5013098;28;20239;-66
2022/09/10 07:47:26;;;;;;;13.23;10.65;;;;;;;;;;5012790;28;20228;-68
2022/09/10 07:49:52;;;;;;;18.60;11.90;;;;;;;;;;5013724;28;20224;-65
2022/09/10 07:52:17;;;;;;;19.58;13.35;;;;;;;;;;5018926;28;20299;-66
2022/09/10 07:54:42;;;;;;;17.30;12.10;;;;;;;;;;5018232;28;20796;-68
2022/09/10 07:57:08;;;;;;;17.40;12.68;;;;;;;;;;5001132;28;20232;-66
2022/09/10 07:59:33;;;;;;;18.48;14.05;;;;;;;;;;5000497;28;20205;-65
2022/09/10 08:01:59;;;;;;;23.35;13.88;;;;;;;;;;5001969;28;20702;-66
2022/09/10 08:04:24;;;;;;;18.33;13.48;;;;;;;;;;5021790;28;20285;-65
2022/09/10 08:06:50;;;;;;;16.15;12.65;;;;;;;;;;5005724;28;21040;-65
2022/09/10 08:09:18;;;;;;;18.88;12.18;;;;;;;;;;5003793;28;20587;-64
2022/09/10 08:11:43;;;;;;;21.83;13.98;;;;;;;;;;5012433;28;20211;-64
2022/09/10 08:14:09;;;;;;;16.23;12.25;;;;;;;;;;5006598;28;20220;-64
2022/09/10 08:16:35;;;;;;;18.00;13.48;;;;;;;;;;5010880;28;20227;-65
2022/09/10 08:19:00;;;;;;;20.58;12.75;;;;;;;;;;4998226;28;20216;-65
2022/09/10 08:21:28;;;;;;;19.38;13.32;;;;;;;;;;4998663;28;20217;-65
2022/09/10 08:23:54;;;;;;;23.48;14.32;;;;;;;;;;5008626;28;20212;-65
2022/09/10 08:26:22;;;;;;;17.17;12.70;;;;;;;;;;5004885;28;20281;-64
2022/09/10 08:28:47;;;;;;;16.38;12.57;;;;;;;;;;5012312;28;20596;-64
2022/09/10 08:31:13;;;;;;;26.95;16.60;;;;;;;;;;5006215;28;20208;-64
2022/09/10 08:33:38;;;;;;;21.40;14.88;;;;;;;;;;5016126;28;20242;-65
2022/09/10 08:36:04;;;;;;;22.77;14.57;;;;;;;;;;5007533;28;20224;-65
2022/09/10 08:38:32;;;;;;;22.33;15.40;;;;;;;;;;5011206;28;20262;-63
2022/09/10 08:40:58;;;;;;;20.80;14.45;;;;;;;;;;5000456;28;20239;-64
2022/09/10 08:43:32;;;;;;;24.40;16.45;;;;;;;;;;4997613;28;20892;-64
2022/09/10 08:45:58;;;;;;;18.77;12.98;;;;;;;;;;4997375;28;20226;-64
2022/09/10 08:48:24;;;;;;;20.15;14.15;;;;;;;;;;5008366;28;20209;-65
2022/09/10 08:50:54;;;;;;;20.23;13.95;;;;;;;;;;5005183;28;20212;-65
2022/09/10 08:53:24;;;;;;;19.10;14.02;;;;;;;;;;5002065;28;20224;-65
2022/09/10 08:55:50;;;;;;;20.75;14.98;;;;;;;;;;5008144;28;20217;-65
2022/09/10 08:58:18;;;;;;;19.05;13.50;;;;;;;;;;5012443;28;20300;-64
2022/09/10 09:00:44;;;;;;;18.77;14.52;;;;;;;;;;5007614;28;20204;-65
2022/09/10 09:03:23;;;;;;;15.45;11.93;;;;;;;;;;5007935;28;20763;-65
2022/09/10 09:05:50;;;;;;;17.98;13.23;;;;;;;;;;4997675;28;20948;-65
2022/09/10 09:08:16;;;;;;;17.88;13.93;;;;;;;;;;5000168;28;20278;-65
2022/09/10 09:10:49;;;;;;;21.77;14.68;;;;;;;;;;5002165;28;20208;-65
2022/09/10 09:13:25;;;;;;;20.30;14.52;;;;;;;;;;5017297;28;20209;-65
2022/09/10 09:15:57;;;;;;;17.92;13.90;;;;;;;;;;5028015;28;20227;-65
2022/09/10 09:18:28;;;;;;;19.75;14.75;;;;;;;;;;5029067;28;20215;-66
2022/09/10 09:20:55;;;;;;;17.02;13.60;;;;;;;;;;5024093;28;20212;-65
2022/09/10 09:23:21;;;;;;;15.60;13.07;;;;;;;;;;5008022;28;21086;-64
2022/09/10 09:25:47;;;;;;;19.27;13.90;;;;;;;;;;5009586;28;20212;-64
2022/09/10 09:28:18;;;;;;;13.75;11.75;;;;;;;;;;5009437;28;20284;-64
2022/09/10 09:30:48;;;;;;;19.00;14.07;;;;;;;;;;5020327;28;20851;-65
2022/09/10 09:33:15;;;;;;;17.88;13.85;;;;;;;;;;5007452;28;20242;-65
2022/09/10 09:35:48;;;;;;;16.23;13.48;;;;;;;;;;5021306;28;20204;-68
2022/09/10 09:38:16;;;;;;;14.90;13.00;;;;;;;;;;5018393;28;20220;-69
2022/09/10 09:40:43;;;;;;;16.42;13.45;;;;;;;;;;5026639;28;20311;-68
2022/09/10 09:43:10;;;;;;;15.60;13.70;;;;;;;;;;5026907;28;20212;-67
2022/09/10 09:45:36;;;;;;;16.17;14.25;;;;;;;;;;5028502;28;20203;-66
2022/09/10 09:48:03;;;;;;;14.93;13.18;;;;;;;;;;5026292;28;20215;-66
2022/09/10 09:50:28;;;;;;;14.98;13.48;;;;;;;;;;5029314;28;20211;-66
2022/09/10 09:52:55;;;;;;;17.95;14.75;;;;;;;;;;5044348;28;20215;-66
2022/09/10 09:55:28;;;;;;;15.93;13.32;;;;;;;;;;5032592;28;20219;-66
2022/09/10 09:58:29;;;;;;;17.35;14.20;;;;;;;;;;5010152;28;20652;-66
2022/09/10 10:01:14;;;;;;;15.82;14.23;;;;;;;;;;5028214;28;20220;-68
2022/09/10 10:03:47;;;;;;;17.30;14.45;;;;;;;;;;5029707;28;20265;-66
2022/09/10 10:06:12;;;;;;;16.73;14.07;;;;;;;;;;5026984;28;20216;-68
2022/09/10 10:08:40;;;;;;;16.48;14.60;;;;;;;;;;5031390;28;20682;-69
2022/09/10 10:11:05;;;;;;;18.95;15.15;;;;;;;;;;5014934;28;20208;-68
2022/09/10 10:13:36;;;;;;;18.88;16.15;;;;;;;;;;5028835;28;20227;-69
2022/09/10 10:16:12;;;;;;;15.43;13.82;;;;;;;;;;5035551;28;20226;-66
2022/09/10 10:18:37;;;;;;;13.10;11.38;;;;;;;;;;5050210;28;20221;-66
2022/09/10 10:21:09;;;;;;;13.05;11.65;;;;;;;;;;5045238;28;20211;-68
2022/09/10 10:23:36;;;;;;;13.32;11.65;;;;;;;;;;5049192;28;20286;-67
2022/09/10 10:26:15;;;;;;;13.68;12.23;;;;;;;;;;5049262;28;20307;-69
2022/09/10 10:28:44;;;;;;;13.88;12.40;;;;;;;;;;5052237;28;20215;-69
2022/09/10 10:31:10;;;;;;;15.75;13.48;;;;;;;;;;5051708;28;20211;-70
2022/09/10 10:33:38;;;;;;;15.15;13.45;;;;;;;;;;5051313;28;20213;-68
2022/09/10 10:36:09;;;;;;;14.63;12.48;;;;;;;;;;5049046;28;20258;-67
2022/09/10 10:38:34;;;;;;;15.18;13.38;;;;;;;;;;5031388;28;20212;-69
2022/09/10 10:41:04;;;;;;;18.63;13.68;;;;;;;;;;5029238;28;20765;-68
2022/09/10 10:43:33;;;;;;;16.33;14.32;;;;;;;;;;5011846;28;20249;-70
2022/09/10 10:46:01;;;;;;;15.95;13.60;;;;;;;;;;5008878;28;20224;-70
2022/09/10 10:48:31;;;;;;;15.80;14.20;;;;;;;;;;5023793;28;20501;-70
2022/09/10 10:51:03;;;;;;;13.32;11.93;;;;;;;;;;5021119;28;20679;-71
2022/09/10 10:53:37;;;;;;;13.65;12.23;;;;;;;;;;5021417;28;20574;-72
2022/09/10 10:56:07;;;;;;;13.70;12.10;;;;;;;;;;5004436;28;21067;-70
2022/09/10 10:58:38;;;;;;;12.93;11.55;;;;;;;;;;5015731;28;20676;-69
2022/09/10 11:01:05;;;;;;;11.85;10.65;;;;;;;;;;4999681;28;20236;-69
2022/09/10 11:03:32;;;;;;;11.55;10.02;;;;;;;;;;5004194;28;20265;-69
2022/09/10 11:05:59;;;;;;;10.35;8.40;;;;;;;;;;5022364;28;20295;-68
2022/09/10 11:08:30;;;;;;;12.75;11.40;;;;;;;;;;5022189;28;20239;-68
2022/09/10 11:10:59;;;;;;;12.23;10.68;;;;;;;;;;5006536;28;20220;-69
2022/09/10 11:13:30;;;;;;;10.98;9.82;;;;;;;;;;5020103;28;20212;-69
2022/09/10 11:16:04;;;;;;;14.10;10.05;;;;;;;;;;5020650;28;20240;-68
2022/09/10 11:18:32;;;;;;;11.63;10.52;;;;;;;;;;5003841;28;20220;-66
2022/09/10 11:20:59;;;;;;;11.35;9.70;;;;;;;;;;5013883;28;20224;-66
2022/09/10 11:23:26;;;;;;;11.15;10.05;;;;;;;;;;4999536;28;20271;-66
2022/09/10 11:25:58;;;;;;;9.55;8.55;;;;;;;;;;5002227;28;20299;-77
2022/09/10 11:28:25;;;;;;;11.35;10.25;;;;;;;;;;5020437;28;20200;-69
2022/09/10 11:30:54;;;;;;;13.90;12.50;;;;;;;;;;5006271;28;20216;-67
2022/09/10 11:33:22;;;;;;;12.55;11.25;;;;;;;;;;5020580;28;20209;-71
2022/09/10 11:35:54;;;;;;;13.88;12.32;;;;;;;;;;5005415;28;20223;-70
2022/09/10 11:38:23;;;;;;;13.02;11.73;;;;;;;;;;5020989;28;20703;-70
2022/09/10 11:41:05;;;;;;;11.43;10.07;;;;;;;;;;5022196;28;20619;-71
2022/09/10 11:43:36;;;;;;;11.38;9.93;;;;;;;;;;4998005;28;20224;-70
2022/09/10 11:46:01;;;;;;;12.70;10.55;;;;;;;;;;5013861;28;20217;-71
2022/09/10 11:48:29;;;;;;;12.63;11.43;;;;;;;;;;5016139;28;20231;-71
2022/09/10 11:50:56;;;;;;;11.45;10.18;;;;;;;;;;5023638;28;20215;-70
2022/09/10 11:53:22;;;;;;;10.95;9.55;;;;;;;;;;5020085;28;20270;-70
2022/09/10 11:55:56;;;;;;;9.52;8.40;;;;;;;;;;5020247;28;20208;-70
2022/09/10 11:58:31;;;;;;;6.72;5.38;;;;;;;;;;5020120;28;20293;-70
2022/09/10 12:01:01;;;;;;;7.78;6.40;;;;;;;;;;5020844;28;20220;-71
2022/09/10 12:03:38;;;;;;;8.30;6.25;;;;;;;;;;5003066;28;20758;-71
2022/09/10 12:06:05;;;;;;;8.82;7.93;;;;;;;;;;4998542;28;20661;-71
2022/09/10 12:08:44;;;;;;;9.00;7.45;;;;;;;;;;4997585;28;20833;-71
2022/09/10 12:11:13;;;;;;;9.85;7.22;;;;;;;;;;5002253;28;20220;-70
2022/09/10 12:13:39;;;;;;;8.10;6.55;;;;;;;;;;5020549;28;20583;-71
2022/09/10 12:16:17;;;;;;;7.30;6.60;;;;;;;;;;5004545;28;20229;-72
2022/09/10 12:18:44;;;;;;;7.97;6.35;;;;;;;;;;5005568;28;20255;-71
2022/09/10 12:21:18;;;;;;;7.80;6.88;;;;;;;;;;5020020;28;20823;-71
2022/09/10 12:23:43;;;;;;;8.57;7.47;;;;;;;;;;5019283;28;20454;-72
2022/09/10 12:26:10;;;;;;;9.05;7.43;;;;;;;;;;5019618;28;20664;-70
2022/09/10 12:28:41;;;;;;;8.77;7.32;;;;;;;;;;4998396;28;20220;-70
2022/09/10 12:31:07;;;;;;;9.38;6.82;;;;;;;;;;4997685;28;20806;-70
2022/09/10 12:33:34;;;;;;;9.23;8.05;;;;;;;;;;5015748;28;20642;-70
2022/09/10 12:35:59;;;;;;;11.30;8.52;;;;;;;;;;5019071;28;20789;-71
2022/09/10 12:38:41;;;;;;;10.13;9.18;;;;;;;;;;5005108;28;20253;-70
2022/09/10 12:41:11;;;;;;;10.23;8.82;;;;;;;;;;5003893;28;20315;-70
2022/09/10 12:43:37;;;;;;;10.85;9.70;;;;;;;;;;5019141;28;20665;-70
2022/09/10 12:46:04;;;;;;;10.45;9.35;;;;;;;;;;5004727;28;20255;-69
2022/09/10 12:48:30;;;;;;;10.40;8.40;;;;;;;;;;5003777;28;20220;-70
2022/09/10 12:50:56;;;;;;;10.38;9.07;;;;;;;;;;4995396;28;20227;-70
2022/09/10 12:53:30;;;;;;;9.85;8.90;;;;;;;;;;5011839;28;20394;-70
2022/09/10 12:55:58;;;;;;;10.20;9.13;;;;;;;;;;5015221;28;20224;-69
2022/09/10 12:58:39;;;;;;;10.38;8.82;;;;;;;;;;5004087;28;20248;-73
2022/09/10 13:01:08;;;;;;;9.63;8.57;;;;;;;;;;5018389;28;20563;-70
2022/09/10 13:03:34;;;;;;;12.05;7.90;;;;;;;;;;5005006;28;20243;-71
2022/09/10 13:06:00;;;;;;;7.60;6.30;;;;;;;;;;5018286;28;20255;-72
2022/09/10 13:08:27;;;;;;;7.20;6.40;;;;;;;;;;5004307;28;20584;-67
2022/09/10 13:11:15;;;;;;;7.28;6.20;;;;;;;;;;5019871;28;20224;-67
2022/09/10 13:13:43;;;;;;;8.30;7.35;;;;;;;;;;4996283;28;20303;-66
2022/09/10 13:16:11;;;;;;;7.70;6.57;;;;;;;;;;5011346;28;20222;-67
2022/09/10 13:18:36;;;;;;;10.68;7.50;;;;;;;;;;4982806;28;20559;-68
2022/09/10 13:21:20;;;;;;;8.18;6.85;;;;;;;;;;4991496;28;20661;-68
2022/09/10 13:23:47;;;;;;;12.23;7.57;;;;;;;;;;5051221;28;20210;-73
2022/09/10 13:26:27;;;;;;;14.98;7.95;;;;;;;;;;5023748;28;20314;-70
2022/09/10 13:28:53;;;;;;;6.55;4.75;;;;;;;;;;5036354;28;20226;-70
2022/09/10 13:31:22;;;;;;;5.57;4.10;;;;;;;;;;5040538;28;20211;-69
2022/09/10 13:33:52;;;;;;;6.60;4.43;;;;;;;;;;5048869;28;20272;-69
2022/09/10 13:36:33;;;;;;;8.07;5.05;;;;;;;;;;5010999;28;20227;-68
2022/09/10 13:38:59;;;;;;;9.25;5.90;;;;;;;;;;4995037;28;20223;-68
2022/09/10 13:41:30;;;;;;;8.38;7.07;;;;;;;;;;5034865;28;20223;-67
2022/09/10 13:44:01;;;;;;;8.68;7.15;;;;;;;;;;5025043;28;20951;-67
2022/09/10 13:46:29;;;;;;;8.50;7.47;;;;;;;;;;5002125;28;20617;-64
2022/09/10 13:49:05;;;;;;;9.00;7.40;;;;;;;;;;5047006;28;20211;-73
2022/09/10 13:51:31;;;;;;;9.25;7.32;;;;;;;;;;5039619;28;20295;-70
2022/09/10 13:53:58;;;;;;;9.13;7.80;;;;;;;;;;5001378;28;20223;-71
2022/09/10 13:56:25;;;;;;;8.30;7.00;;;;;;;;;;5017254;28;20698;-71
2022/09/10 13:58:52;;;;;;;8.20;6.93;;;;;;;;;;5011306;28;20620;-70
2022/09/10 14:01:17;;;;;;;7.63;6.55;;;;;;;;;;5010661;28;20266;-69
2022/09/10 14:03:44;;;;;;;7.40;6.20;;;;;;;;;;4998927;28;20453;-70
2022/09/10 14:06:14;;;;;;;7.20;6.05;;;;;;;;;;5003619;28;20211;-70
2022/09/10 14:08:42;;;;;;;7.20;5.97;;;;;;;;;;5019161;28;20299;-71
2022/09/10 14:11:12;;;;;;;6.15;5.30;;;;;;;;;;5018913;28;20220;-73
2022/09/10 14:13:37;;;;;;;7.30;5.45;;;;;;;;;;5004363;28;20227;-70
2022/09/10 14:16:03;;;;;;;7.22;4.88;;;;;;;;;;5003230;28;20209;-71
2022/09/10 14:18:32;;;;;;;9.02;3.90;;;;;;;;;;5020852;28;20303;-72
2022/09/10 14:20:58;;;;;;;5.20;4.13;;;;;;;;;;4997054;28;20239;-70
2022/09/10 14:23:23;;;;;;;5.25;3.40;;;;;;;;;;5010861;28;20900;-70
2022/09/10 14:25:51;;;;;;;6.25;3.72;;;;;;;;;;5007103;28;20303;-71
2022/09/10 14:28:16;;;;;;;3.92;2.90;;;;;;;;;;5018172;28;20266;-70